Aviation Digital Data Service (ADDS)

Output produced by METARs form (0716 UTC 24 March 2019)
found at http://www.aviationweather.gov/metar/data/
 
MGGT 240700Z 36012KT CAVOK 15/12 Q1027 A3033
TAF MGGT 2406/2506 36014KT CAVOK TX27/2420Z TN15/2412Z 
     BECMG 2409/2411 FEW014 
     BECMG 2414/24116 36018KT FEW018 
     BECMG 2421/2423 FEW020 
     BECMG 2501/2503 36012KT CAVOK
       
MGPB 240700Z 00000KT CAVOK 19/19 Q1017 A3003
TAF MGPB 2406/2506 00000KT CAVOK TX31/2420Z TN19/2412Z 
     BECMG 2409/2411 FEW016 
     BECMG 2414/2416 36008KT FEW018 
     BECMG 2501/2503 00000KT CAVOK
       
TAF MGSJ 2406/2506 00000KT CAVOK TX34/2420Z TN21/2412Z 
     BECMG 2415/2417 18008KT 8000 NSC 
     TEMPO 2420/2424 FEW020 
     BECMG 2501/2503 00000KT CAVOK